sensor_id;sensor_type;location;lat;lon;timestamp;temperature;humidity
1880;DHT22;49285;49.002;8.390;2022-07-29T00:01:16;25.80;78.40
1880;DHT22;49285;49.002;8.390;2022-07-29T00:03:42;25.80;79.40
1880;DHT22;49285;49.002;8.390;2022-07-29T00:06:08;25.70;78.80
1880;DHT22;49285;49.002;8.390;2022-07-29T00:08:33;25.70;78.90
1880;DHT22;49285;49.002;8.390;2022-07-29T00:10:59;25.70;79.20
1880;DHT22;49285;49.002;8.390;2022-07-29T00:13:24;25.60;79.90
1880;DHT22;49285;49.002;8.390;2022-07-29T00:15:50;25.60;79.90
1880;DHT22;49285;49.002;8.390;2022-07-29T00:18:16;25.60;80.20
1880;DHT22;49285;49.002;8.390;2022-07-29T00:20:41;25.60;80.30
1880;DHT22;49285;49.002;8.390;2022-07-29T00:23:07;25.50;80.80
1880;DHT22;49285;49.002;8.390;2022-07-29T00:25:33;25.60;81.30
1880;DHT22;49285;49.002;8.390;2022-07-29T00:27:58;25.50;81.40
1880;DHT22;49285;49.002;8.390;2022-07-29T00:30:24;25.50;81.50
1880;DHT22;49285;49.002;8.390;2022-07-29T00:32:49;25.50;81.70
1880;DHT22;49285;49.002;8.390;2022-07-29T00:35:15;25.50;82.00
1880;DHT22;49285;49.002;8.390;2022-07-29T00:37:59;25.50;82.10
1880;DHT22;49285;49.002;8.390;2022-07-29T00:40:25;25.50;83.20
1880;DHT22;49285;49.002;8.390;2022-07-29T00:42:52;25.50;82.40
1880;DHT22;49285;49.002;8.390;2022-07-29T00:45:18;25.50;82.60
1880;DHT22;49285;49.002;8.390;2022-07-29T00:47:44;25.40;82.90
1880;DHT22;49285;49.002;8.390;2022-07-29T00:50:11;25.40;83.00
1880;DHT22;49285;49.002;8.390;2022-07-29T00:52:39;25.40;83.00
1880;DHT22;49285;49.002;8.390;2022-07-29T00:55:07;25.40;83.10
1880;DHT22;49285;49.002;8.390;2022-07-29T00:57:34;25.30;83.60
1880;DHT22;49285;49.002;8.390;2022-07-29T00:59:59;25.30;83.70
1880;DHT22;49285;49.002;8.390;2022-07-29T01:02:25;25.30;83.80
1880;DHT22;49285;49.002;8.390;2022-07-29T01:04:51;25.30;84.20
1880;DHT22;49285;49.002;8.390;2022-07-29T01:07:17;25.30;84.50
1880;DHT22;49285;49.002;8.390;2022-07-29T01:09:44;25.30;84.80
1880;DHT22;49285;49.002;8.390;2022-07-29T01:12:13;25.20;84.90
1880;DHT22;49285;49.002;8.390;2022-07-29T01:14:40;25.20;85.60
1880;DHT22;49285;49.002;8.390;2022-07-29T01:17:28;25.20;85.50
1880;DHT22;49285;49.002;8.390;2022-07-29T01:30:27;25.10;86.80
1880;DHT22;49285;49.002;8.390;2022-07-29T01:33:00;25.10;87.40
1880;DHT22;49285;49.002;8.390;2022-07-29T01:35:33;25.00;87.70
1880;DHT22;49285;49.002;8.390;2022-07-29T01:38:13;25.00;88.10
1880;DHT22;49285;49.002;8.390;2022-07-29T01:40:51;25.00;88.40
1880;DHT22;49285;49.002;8.390;2022-07-29T01:43:27;25.00;88.80
1880;DHT22;49285;49.002;8.390;2022-07-29T01:45:58;25.00;88.80
1880;DHT22;49285;49.002;8.390;2022-07-29T01:48:37;25.00;88.90
1880;DHT22;49285;49.002;8.390;2022-07-29T01:51:09;25.00;89.20
1880;DHT22;49285;49.002;8.390;2022-07-29T01:54:08;25.00;89.60
1880;DHT22;49285;49.002;8.390;2022-07-29T01:56:36;24.90;90.00
1880;DHT22;49285;49.002;8.390;2022-07-29T01:59:05;24.90;90.10
1880;DHT22;49285;49.002;8.390;2022-07-29T02:01:33;24.90;90.10
1880;DHT22;49285;49.002;8.390;2022-07-29T02:04:03;24.90;90.30
1880;DHT22;49285;49.002;8.390;2022-07-29T02:06:31;24.90;90.40
1880;DHT22;49285;49.002;8.390;2022-07-29T02:08:58;24.90;90.60
1880;DHT22;49285;49.002;8.390;2022-07-29T02:11:24;24.80;90.80
1880;DHT22;49285;49.002;8.390;2022-07-29T02:13:52;24.70;90.90
1880;DHT22;49285;49.002;8.390;2022-07-29T02:16:22;24.70;91.10
1880;DHT22;49285;49.002;8.390;2022-07-29T02:18:50;24.60;91.20
1880;DHT22;49285;49.002;8.390;2022-07-29T02:21:23;24.60;91.40
1880;DHT22;49285;49.002;8.390;2022-07-29T02:23:51;24.60;91.60
1880;DHT22;49285;49.002;8.390;2022-07-29T02:26:20;24.50;91.70
1880;DHT22;49285;49.002;8.390;2022-07-29T02:28:48;24.50;91.90
1880;DHT22;49285;49.002;8.390;2022-07-29T02:31:16;24.40;92.20
1880;DHT22;49285;49.002;8.390;2022-07-29T02:33:43;24.40;92.30
1880;DHT22;49285;49.002;8.390;2022-07-29T02:36:09;24.40;92.50
1880;DHT22;49285;49.002;8.390;2022-07-29T02:38:36;24.40;92.70
1880;DHT22;49285;49.002;8.390;2022-07-29T02:44:20;24.30;93.30
1880;DHT22;49285;49.002;8.390;2022-07-29T02:46:50;24.30;93.50
1880;DHT22;49285;49.002;8.390;2022-07-29T02:52:03;24.20;93.80
1880;DHT22;49285;49.002;8.390;2022-07-29T02:57:21;24.20;94.10
1880;DHT22;49285;49.002;8.390;2022-07-29T02:59:51;24.10;94.20
1880;DHT22;49285;49.002;8.390;2022-07-29T03:02:18;24.10;94.40
1880;DHT22;49285;49.002;8.390;2022-07-29T03:04:46;24.10;94.60
1880;DHT22;49285;49.002;8.390;2022-07-29T03:07:14;24.10;94.80
1880;DHT22;49285;49.002;8.390;2022-07-29T03:09:43;24.10;95.10
1880;DHT22;49285;49.002;8.390;2022-07-29T03:12:13;24.10;95.30
1880;DHT22;49285;49.002;8.390;2022-07-29T03:14:40;24.10;95.40
1880;DHT22;49285;49.002;8.390;2022-07-29T03:17:06;24.10;95.50
1880;DHT22;49285;49.002;8.390;2022-07-29T03:19:32;24.00;95.60
1880;DHT22;49285;49.002;8.390;2022-07-29T03:21:59;24.00;95.80
1880;DHT22;49285;49.002;8.390;2022-07-29T03:24:36;24.00;96.10
1880;DHT22;49285;49.002;8.390;2022-07-29T03:27:02;24.00;96.30
1880;DHT22;49285;49.002;8.390;2022-07-29T03:29:29;24.00;96.50
1880;DHT22;49285;49.002;8.390;2022-07-29T03:31:55;23.90;96.60
1880;DHT22;49285;49.002;8.390;2022-07-29T03:34:21;23.90;96.70
1880;DHT22;49285;49.002;8.390;2022-07-29T03:36:47;23.90;96.90
1880;DHT22;49285;49.002;8.390;2022-07-29T03:39:17;23.90;97.00
1880;DHT22;49285;49.002;8.390;2022-07-29T03:41:44;23.90;97.20
1880;DHT22;49285;49.002;8.390;2022-07-29T03:44:11;23.90;97.30
1880;DHT22;49285;49.002;8.390;2022-07-29T03:46:39;23.80;97.40
1880;DHT22;49285;49.002;8.390;2022-07-29T03:49:06;23.80;97.50
1880;DHT22;49285;49.002;8.390;2022-07-29T03:51:34;23.80;97.60
1880;DHT22;49285;49.002;8.390;2022-07-29T03:54:03;23.80;97.80
1880;DHT22;49285;49.002;8.390;2022-07-29T03:56:29;23.70;98.00
1880;DHT22;49285;49.002;8.390;2022-07-29T03:58:58;23.60;98.40
1880;DHT22;49285;49.002;8.390;2022-07-29T04:01:24;23.70;98.60
1880;DHT22;49285;49.002;8.390;2022-07-29T04:03:51;23.70;98.60
1880;DHT22;49285;49.002;8.390;2022-07-29T04:06:16;23.70;98.70
1880;DHT22;49285;49.002;8.390;2022-07-29T04:08:42;23.70;98.80
1880;DHT22;49285;49.002;8.390;2022-07-29T04:11:08;23.70;98.90
1880;DHT22;49285;49.002;8.390;2022-07-29T04:13:33;23.70;98.90
1880;DHT22;49285;49.002;8.390;2022-07-29T04:15:59;23.70;99.00
1880;DHT22;49285;49.002;8.390;2022-07-29T04:18:25;23.70;99.10
1880;DHT22;49285;49.002;8.390;2022-07-29T04:20:51;23.70;99.50
1880;DHT22;49285;49.002;8.390;2022-07-29T04:23:16;23.70;99.50
1880;DHT22;49285;49.002;8.390;2022-07-29T04:25:42;23.70;99.50
1880;DHT22;49285;49.002;8.390;2022-07-29T04:28:09;23.70;99.60
1880;DHT22;49285;49.002;8.390;2022-07-29T04:30:36;23.70;99.50
1880;DHT22;49285;49.002;8.390;2022-07-29T04:33:04;23.60;99.90
1880;DHT22;49285;49.002;8.390;2022-07-29T04:35:33;23.70;99.90
1880;DHT22;49285;49.002;8.390;2022-07-29T04:37:58;23.60;99.90
1880;DHT22;49285;49.002;8.390;2022-07-29T04:40:24;23.50;99.90
1880;DHT22;49285;49.002;8.390;2022-07-29T04:42:49;23.30;99.90
1880;DHT22;49285;49.002;8.390;2022-07-29T04:45:15;23.30;99.90
1880;DHT22;49285;49.002;8.390;2022-07-29T04:47:41;23.30;99.90
1880;DHT22;49285;49.002;8.390;2022-07-29T04:50:08;23.30;99.90
1880;DHT22;49285;49.002;8.390;2022-07-29T04:52:33;23.30;99.90
1880;DHT22;49285;49.002;8.390;2022-07-29T04:55:00;23.20;99.90
1880;DHT22;49285;49.002;8.390;2022-07-29T04:57:26;23.10;99.90
1880;DHT22;49285;49.002;8.390;2022-07-29T04:59:52;23.00;99.90
1880;DHT22;49285;49.002;8.390;2022-07-29T05:02:17;23.00;99.90
1880;DHT22;49285;49.002;8.390;2022-07-29T05:04:43;22.90;99.90
1880;DHT22;49285;49.002;8.390;2022-07-29T05:07:09;22.70;99.90
1880;DHT22;49285;49.002;8.390;2022-07-29T05:09:34;22.60;99.90
1880;DHT22;49285;49.002;8.390;2022-07-29T05:12:00;22.60;99.90
1880;DHT22;49285;49.002;8.390;2022-07-29T05:14:26;22.60;99.90
1880;DHT22;49285;49.002;8.390;2022-07-29T05:16:51;22.60;99.90
1880;DHT22;49285;49.002;8.390;2022-07-29T05:19:18;22.60;99.90
1880;DHT22;49285;49.002;8.390;2022-07-29T05:21:46;22.60;99.90
1880;DHT22;49285;49.002;8.390;2022-07-29T05:24:13;22.60;99.90
1880;DHT22;49285;49.002;8.390;2022-07-29T05:26:39;22.60;99.90
1880;DHT22;49285;49.002;8.390;2022-07-29T05:29:04;22.60;99.90
1880;DHT22;49285;49.002;8.390;2022-07-29T05:31:30;22.60;99.90
1880;DHT22;49285;49.002;8.390;2022-07-29T05:33:56;22.60;99.90
1880;DHT22;49285;49.002;8.390;2022-07-29T05:36:21;22.60;99.90
1880;DHT22;49285;49.002;8.390;2022-07-29T05:38:47;22.60;99.90
1880;DHT22;49285;49.002;8.390;2022-07-29T05:41:13;22.60;99.90
1880;DHT22;49285;49.002;8.390;2022-07-29T05:43:38;22.60;99.90
1880;DHT22;49285;49.002;8.390;2022-07-29T05:46:04;22.70;99.90
1880;DHT22;49285;49.002;8.390;2022-07-29T05:48:30;22.70;99.90
1880;DHT22;49285;49.002;8.390;2022-07-29T05:50:55;22.60;99.90
1880;DHT22;49285;49.002;8.390;2022-07-29T05:53:21;22.60;99.90
1880;DHT22;49285;49.002;8.390;2022-07-29T05:55:48;22.50;99.90
1880;DHT22;49285;49.002;8.390;2022-07-29T05:58:14;22.50;99.90
1880;DHT22;49285;49.002;8.390;2022-07-29T06:00:40;22.50;99.90
1880;DHT22;49285;49.002;8.390;2022-07-29T06:03:05;22.50;99.90
1880;DHT22;49285;49.002;8.390;2022-07-29T06:05:31;22.60;99.90
1880;DHT22;49285;49.002;8.390;2022-07-29T06:07:56;22.60;99.90
1880;DHT22;49285;49.002;8.390;2022-07-29T06:10:22;22.70;99.90
1880;DHT22;49285;49.002;8.390;2022-07-29T06:12:48;22.60;99.90
1880;DHT22;49285;49.002;8.390;2022-07-29T06:15:13;22.70;99.90
1880;DHT22;49285;49.002;8.390;2022-07-29T06:17:40;22.70;99.90
1880;DHT22;49285;49.002;8.390;2022-07-29T06:20:06;22.70;99.90
1880;DHT22;49285;49.002;8.390;2022-07-29T06:22:31;22.70;99.90
1880;DHT22;49285;49.002;8.390;2022-07-29T06:24:57;22.80;99.90
1880;DHT22;49285;49.002;8.390;2022-07-29T06:27:22;22.90;99.90
1880;DHT22;49285;49.002;8.390;2022-07-29T06:29:48;22.90;99.90
1880;DHT22;49285;49.002;8.390;2022-07-29T06:32:14;22.90;99.90
1880;DHT22;49285;49.002;8.390;2022-07-29T06:34:39;23.00;99.90
1880;DHT22;49285;49.002;8.390;2022-07-29T06:37:06;22.90;99.90
1880;DHT22;49285;49.002;8.390;2022-07-29T06:39:34;22.90;99.90
1880;DHT22;49285;49.002;8.390;2022-07-29T06:42:00;22.90;99.90
1880;DHT22;49285;49.002;8.390;2022-07-29T06:44:26;23.00;99.90
1880;DHT22;49285;49.002;8.390;2022-07-29T06:46:52;23.10;99.90
1880;DHT22;49285;49.002;8.390;2022-07-29T06:49:18;23.20;99.90
1880;DHT22;49285;49.002;8.390;2022-07-29T06:51:44;23.20;99.90
1880;DHT22;49285;49.002;8.390;2022-07-29T06:54:09;23.30;99.90
1880;DHT22;49285;49.002;8.390;2022-07-29T06:56:35;23.30;99.90
1880;DHT22;49285;49.002;8.390;2022-07-29T06:59:03;23.30;99.90
1880;DHT22;49285;49.002;8.390;2022-07-29T07:01:29;23.30;99.90
1880;DHT22;49285;49.002;8.390;2022-07-29T07:03:54;23.40;99.90
1880;DHT22;49285;49.002;8.390;2022-07-29T07:06:20;23.40;99.90
1880;DHT22;49285;49.002;8.390;2022-07-29T07:08:45;23.30;99.90
1880;DHT22;49285;49.002;8.390;2022-07-29T07:11:11;23.40;99.90
1880;DHT22;49285;49.002;8.390;2022-07-29T07:13:37;23.50;99.90
1880;DHT22;49285;49.002;8.390;2022-07-29T07:16:03;23.50;99.90
1880;DHT22;49285;49.002;8.390;2022-07-29T07:18:29;23.50;99.90
1880;DHT22;49285;49.002;8.390;2022-07-29T07:20:56;23.60;99.90
1880;DHT22;49285;49.002;8.390;2022-07-29T07:23:22;23.60;99.90
1880;DHT22;49285;49.002;8.390;2022-07-29T07:25:47;23.60;99.90
1880;DHT22;49285;49.002;8.390;2022-07-29T07:28:13;23.70;99.90
1880;DHT22;49285;49.002;8.390;2022-07-29T07:30:39;23.90;99.90
1880;DHT22;49285;49.002;8.390;2022-07-29T07:33:05;24.00;99.90
1880;DHT22;49285;49.002;8.390;2022-07-29T07:35:31;23.90;99.80
1880;DHT22;49285;49.002;8.390;2022-07-29T07:37:57;23.90;99.50
1880;DHT22;49285;49.002;8.390;2022-07-29T07:40:24;24.00;99.50
1880;DHT22;49285;49.002;8.390;2022-07-29T07:42:50;24.00;99.10
1880;DHT22;49285;49.002;8.390;2022-07-29T07:45:15;24.10;98.50
1880;DHT22;49285;49.002;8.390;2022-07-29T07:47:41;24.20;98.60
1880;DHT22;49285;49.002;8.390;2022-07-29T07:50:09;24.20;97.80
1880;DHT22;49285;49.002;8.390;2022-07-29T07:52:46;24.20;97.80
1880;DHT22;49285;49.002;8.390;2022-07-29T07:55:12;24.30;97.90
1880;DHT22;49285;49.002;8.390;2022-07-29T07:57:37;24.40;97.50
1880;DHT22;49285;49.002;8.390;2022-07-29T08:00:04;24.50;97.40
1880;DHT22;49285;49.002;8.390;2022-07-29T08:02:30;24.40;96.90
1880;DHT22;49285;49.002;8.390;2022-07-29T08:04:55;24.50;96.40
1880;DHT22;49285;49.002;8.390;2022-07-29T08:07:21;24.40;96.00
1880;DHT22;49285;49.002;8.390;2022-07-29T08:09:46;24.60;95.90
1880;DHT22;49285;49.002;8.390;2022-07-29T08:12:12;24.70;95.40
1880;DHT22;49285;49.002;8.390;2022-07-29T08:14:38;24.90;94.90
1880;DHT22;49285;49.002;8.390;2022-07-29T08:17:03;24.90;94.10
1880;DHT22;49285;49.002;8.390;2022-07-29T08:19:29;25.00;93.80
1880;DHT22;49285;49.002;8.390;2022-07-29T08:21:55;24.90;93.40
1880;DHT22;49285;49.002;8.390;2022-07-29T08:24:21;24.80;93.80
1880;DHT22;49285;49.002;8.390;2022-07-29T08:27:06;24.90;93.40
1880;DHT22;49285;49.002;8.390;2022-07-29T08:29:32;24.90;92.60
1880;DHT22;49285;49.002;8.390;2022-07-29T08:31:57;24.80;92.30
1880;DHT22;49285;49.002;8.390;2022-07-29T08:34:23;24.80;92.00
1880;DHT22;49285;49.002;8.390;2022-07-29T08:36:49;24.80;92.00
1880;DHT22;49285;49.002;8.390;2022-07-29T08:39:14;24.80;91.80
1880;DHT22;49285;49.002;8.390;2022-07-29T08:41:40;24.90;91.70
1880;DHT22;49285;49.002;8.390;2022-07-29T08:44:05;24.90;91.40
1880;DHT22;49285;49.002;8.390;2022-07-29T08:46:31;25.00;90.80
1880;DHT22;49285;49.002;8.390;2022-07-29T08:48:57;25.10;90.20
1880;DHT22;49285;49.002;8.390;2022-07-29T08:51:23;25.20;90.00
1880;DHT22;49285;49.002;8.390;2022-07-29T08:53:50;25.30;89.90
1880;DHT22;49285;49.002;8.390;2022-07-29T08:56:17;25.40;88.90
1880;DHT22;49285;49.002;8.390;2022-07-29T08:58:45;25.40;87.80
1880;DHT22;49285;49.002;8.390;2022-07-29T09:01:13;25.40;88.00
1880;DHT22;49285;49.002;8.390;2022-07-29T09:03:41;25.40;88.40
1880;DHT22;49285;49.002;8.390;2022-07-29T09:06:08;25.40;88.70
1880;DHT22;49285;49.002;8.390;2022-07-29T09:08:34;25.40;87.60
1880;DHT22;49285;49.002;8.390;2022-07-29T09:11:03;25.40;86.20
1880;DHT22;49285;49.002;8.390;2022-07-29T09:13:28;25.50;86.20
1880;DHT22;49285;49.002;8.390;2022-07-29T09:15:54;25.50;85.40
1880;DHT22;49285;49.002;8.390;2022-07-29T09:18:37;25.40;85.40
1880;DHT22;49285;49.002;8.390;2022-07-29T09:21:05;25.30;86.10
1880;DHT22;49285;49.002;8.390;2022-07-29T09:24:03;25.30;85.70
1880;DHT22;49285;49.002;8.390;2022-07-29T09:26:30;25.30;86.30
1880;DHT22;49285;49.002;8.390;2022-07-29T09:28:57;25.40;84.60
1880;DHT22;49285;49.002;8.390;2022-07-29T09:31:33;25.40;84.70
1880;DHT22;49285;49.002;8.390;2022-07-29T09:34:00;25.50;84.50
1880;DHT22;49285;49.002;8.390;2022-07-29T09:36:26;25.60;85.10
1880;DHT22;49285;49.002;8.390;2022-07-29T09:38:59;25.80;83.50
1880;DHT22;49285;49.002;8.390;2022-07-29T09:41:28;25.80;83.60
1880;DHT22;49285;49.002;8.390;2022-07-29T09:43:59;25.80;84.90
1880;DHT22;49285;49.002;8.390;2022-07-29T09:46:25;25.90;84.20
1880;DHT22;49285;49.002;8.390;2022-07-29T09:51:33;25.90;83.80
1880;DHT22;49285;49.002;8.390;2022-07-29T09:53:59;26.00;83.60
1880;DHT22;49285;49.002;8.390;2022-07-29T09:56:41;26.20;83.60
1880;DHT22;49285;49.002;8.390;2022-07-29T09:59:08;26.10;83.70
1880;DHT22;49285;49.002;8.390;2022-07-29T10:01:34;26.20;84.00
1880;DHT22;49285;49.002;8.390;2022-07-29T10:04:01;26.40;83.40
1880;DHT22;49285;49.002;8.390;2022-07-29T10:06:27;26.30;82.60
1880;DHT22;49285;49.002;8.390;2022-07-29T10:08:53;26.30;81.70
1880;DHT22;49285;49.002;8.390;2022-07-29T10:11:19;26.30;82.10
1880;DHT22;49285;49.002;8.390;2022-07-29T10:13:47;26.30;82.30
1880;DHT22;49285;49.002;8.390;2022-07-29T10:16:14;26.20;82.00
1880;DHT22;49285;49.002;8.390;2022-07-29T10:18:42;26.20;82.90
1880;DHT22;49285;49.002;8.390;2022-07-29T10:21:09;26.20;82.80
1880;DHT22;49285;49.002;8.390;2022-07-29T10:23:35;26.30;81.90
1880;DHT22;49285;49.002;8.390;2022-07-29T10:26:03;26.30;81.60
1880;DHT22;49285;49.002;8.390;2022-07-29T10:28:31;26.40;80.20
1880;DHT22;49285;49.002;8.390;2022-07-29T10:31:02;26.50;79.70
1880;DHT22;49285;49.002;8.390;2022-07-29T10:33:51;26.70;78.60
1880;DHT22;49285;49.002;8.390;2022-07-29T10:44:39;26.80;75.70
1880;DHT22;49285;49.002;8.390;2022-07-29T10:47:06;26.90;75.90
1880;DHT22;49285;49.002;8.390;2022-07-29T10:49:32;27.00;75.30
1880;DHT22;49285;49.002;8.390;2022-07-29T10:59:45;27.60;72.20
1880;DHT22;49285;49.002;8.390;2022-07-29T11:05:18;27.70;71.30
1880;DHT22;49285;49.002;8.390;2022-07-29T11:08:23;27.70;71.40
1880;DHT22;49285;49.002;8.390;2022-07-29T11:11:50;27.80;70.90
1880;DHT22;49285;49.002;8.390;2022-07-29T11:13:57;27.80;70.90
1880;DHT22;49285;49.002;8.390;2022-07-29T11:16:23;28.00;71.10
1880;DHT22;49285;49.002;8.390;2022-07-29T11:21:49;28.20;69.10
1880;DHT22;49285;49.002;8.390;2022-07-29T11:24:22;28.20;67.80
1880;DHT22;49285;49.002;8.390;2022-07-29T11:29:36;28.30;68.10
1880;DHT22;49285;49.002;8.390;2022-07-29T11:32:12;28.50;67.90
1880;DHT22;49285;49.002;8.390;2022-07-29T11:34:40;28.50;67.40
1880;DHT22;49285;49.002;8.390;2022-07-29T11:39:35;28.80;66.70
1880;DHT22;49285;49.002;8.390;2022-07-29T11:47:28;29.10;65.50
1880;DHT22;49285;49.002;8.390;2022-07-29T11:50:00;29.10;64.80
1880;DHT22;49285;49.002;8.390;2022-07-29T11:52:36;29.10;64.30
1880;DHT22;49285;49.002;8.390;2022-07-29T11:55:10;29.10;64.70
1880;DHT22;49285;49.002;8.390;2022-07-29T11:57:36;29.20;64.30
1880;DHT22;49285;49.002;8.390;2022-07-29T12:00:05;29.20;63.80
1880;DHT22;49285;49.002;8.390;2022-07-29T12:02:43;29.10;63.30
1880;DHT22;49285;49.002;8.390;2022-07-29T12:05:09;29.10;63.00
1880;DHT22;49285;49.002;8.390;2022-07-29T12:07:37;29.10;62.70
1880;DHT22;49285;49.002;8.390;2022-07-29T12:10:04;29.00;62.40
1880;DHT22;49285;49.002;8.390;2022-07-29T12:12:30;29.10;62.30
1880;DHT22;49285;49.002;8.390;2022-07-29T12:14:56;28.90;62.10
1880;DHT22;49285;49.002;8.390;2022-07-29T12:17:30;28.90;62.60
1880;DHT22;49285;49.002;8.390;2022-07-29T12:19:57;29.10;62.10
1880;DHT22;49285;49.002;8.390;2022-07-29T12:22:33;29.40;61.30
1880;DHT22;49285;49.002;8.390;2022-07-29T12:25:12;29.40;60.80
1880;DHT22;49285;49.002;8.390;2022-07-29T12:27:41;29.40;59.70
1880;DHT22;49285;49.002;8.390;2022-07-29T12:30:10;29.30;59.60
1880;DHT22;49285;49.002;8.390;2022-07-29T12:35:14;29.30;59.00
1880;DHT22;49285;49.002;8.390;2022-07-29T12:37:42;29.30;58.80
1880;DHT22;49285;49.002;8.390;2022-07-29T12:40:10;29.30;59.30
1880;DHT22;49285;49.002;8.390;2022-07-29T12:42:36;29.20;59.70
1880;DHT22;49285;49.002;8.390;2022-07-29T12:45:03;29.50;59.00
1880;DHT22;49285;49.002;8.390;2022-07-29T12:47:29;29.60;59.40
1880;DHT22;49285;49.002;8.390;2022-07-29T12:50:12;29.50;58.60
1880;DHT22;49285;49.002;8.390;2022-07-29T12:52:40;29.60;59.80
1880;DHT22;49285;49.002;8.390;2022-07-29T12:55:07;29.80;58.50
1880;DHT22;49285;49.002;8.390;2022-07-29T12:57:47;29.80;57.60
1880;DHT22;49285;49.002;8.390;2022-07-29T13:00:14;29.70;57.60
1880;DHT22;49285;49.002;8.390;2022-07-29T13:02:41;29.70;57.90
1880;DHT22;49285;49.002;8.390;2022-07-29T13:05:09;29.70;57.80
1880;DHT22;49285;49.002;8.390;2022-07-29T13:07:36;29.70;57.70
1880;DHT22;49285;49.002;8.390;2022-07-29T13:10:19;29.60;57.80
1880;DHT22;49285;49.002;8.390;2022-07-29T13:13:23;29.60;58.50
1880;DHT22;49285;49.002;8.390;2022-07-29T13:16:06;29.40;58.60
1880;DHT22;49285;49.002;8.390;2022-07-29T13:18:34;29.50;58.80
1880;DHT22;49285;49.002;8.390;2022-07-29T13:21:12;29.60;58.80
1880;DHT22;49285;49.002;8.390;2022-07-29T13:23:38;29.40;58.00
1880;DHT22;49285;49.002;8.390;2022-07-29T13:26:10;29.40;58.60
1880;DHT22;49285;49.002;8.390;2022-07-29T13:28:43;29.20;58.30
1880;DHT22;49285;49.002;8.390;2022-07-29T13:31:09;29.10;58.10
1880;DHT22;49285;49.002;8.390;2022-07-29T13:33:35;28.90;58.30
1880;DHT22;49285;49.002;8.390;2022-07-29T13:36:00;29.00;58.00
1880;DHT22;49285;49.002;8.390;2022-07-29T13:38:26;29.10;57.20
1880;DHT22;49285;49.002;8.390;2022-07-29T13:40:52;29.10;57.00
1880;DHT22;49285;49.002;8.390;2022-07-29T13:43:18;29.00;56.90
1880;DHT22;49285;49.002;8.390;2022-07-29T13:45:43;28.90;56.90
1880;DHT22;49285;49.002;8.390;2022-07-29T13:48:09;28.90;56.70
1880;DHT22;49285;49.002;8.390;2022-07-29T13:50:35;28.90;56.50
1880;DHT22;49285;49.002;8.390;2022-07-29T13:53:00;28.90;56.80
1880;DHT22;49285;49.002;8.390;2022-07-29T13:55:26;28.90;56.40
1880;DHT22;49285;49.002;8.390;2022-07-29T13:57:52;29.00;56.40
1880;DHT22;49285;49.002;8.390;2022-07-29T14:00:17;29.00;56.30
1880;DHT22;49285;49.002;8.390;2022-07-29T14:02:44;29.10;55.50
1880;DHT22;49285;49.002;8.390;2022-07-29T14:05:10;29.20;55.90
1880;DHT22;49285;49.002;8.390;2022-07-29T14:07:37;29.40;55.60
1880;DHT22;49285;49.002;8.390;2022-07-29T14:10:04;29.60;55.60
1880;DHT22;49285;49.002;8.390;2022-07-29T14:12:30;29.80;54.60
1880;DHT22;49285;49.002;8.390;2022-07-29T14:14:56;29.80;54.70
1880;DHT22;49285;49.002;8.390;2022-07-29T14:17:21;29.80;54.80
1880;DHT22;49285;49.002;8.390;2022-07-29T14:19:48;30.00;54.50
1880;DHT22;49285;49.002;8.390;2022-07-29T14:22:13;30.00;53.80
1880;DHT22;49285;49.002;8.390;2022-07-29T14:24:39;30.00;53.30
1880;DHT22;49285;49.002;8.390;2022-07-29T14:27:06;29.90;53.90
1880;DHT22;49285;49.002;8.390;2022-07-29T14:29:32;29.80;53.70
1880;DHT22;49285;49.002;8.390;2022-07-29T14:31:58;29.90;53.80
1880;DHT22;49285;49.002;8.390;2022-07-29T14:34:23;29.90;52.80
1880;DHT22;49285;49.002;8.390;2022-07-29T14:36:49;30.00;52.90
1880;DHT22;49285;49.002;8.390;2022-07-29T14:39:15;29.90;52.70
1880;DHT22;49285;49.002;8.390;2022-07-29T14:41:41;30.00;52.50
1880;DHT22;49285;49.002;8.390;2022-07-29T14:44:07;30.10;51.90
1880;DHT22;49285;49.002;8.390;2022-07-29T14:46:33;30.20;51.90
1880;DHT22;49285;49.002;8.390;2022-07-29T14:48:59;30.30;51.60
1880;DHT22;49285;49.002;8.390;2022-07-29T14:51:24;30.40;51.50
1880;DHT22;49285;49.002;8.390;2022-07-29T14:53:50;30.60;51.10
1880;DHT22;49285;49.002;8.390;2022-07-29T14:56:16;30.60;51.00
1880;DHT22;49285;49.002;8.390;2022-07-29T14:58:41;30.70;50.90
1880;DHT22;49285;49.002;8.390;2022-07-29T15:01:07;30.70;50.20
1880;DHT22;49285;49.002;8.390;2022-07-29T15:03:33;30.70;50.00
1880;DHT22;49285;49.002;8.390;2022-07-29T15:05:58;30.60;49.90
1880;DHT22;49285;49.002;8.390;2022-07-29T15:08:24;30.80;50.20
1880;DHT22;49285;49.002;8.390;2022-07-29T15:10:50;30.90;50.00
1880;DHT22;49285;49.002;8.390;2022-07-29T15:13:16;31.00;49.50
1880;DHT22;49285;49.002;8.390;2022-07-29T15:15:42;31.00;48.80
1880;DHT22;49285;49.002;8.390;2022-07-29T15:18:08;31.20;48.40
1880;DHT22;49285;49.002;8.390;2022-07-29T15:20:34;31.30;47.60
1880;DHT22;49285;49.002;8.390;2022-07-29T15:23:00;31.20;47.20
1880;DHT22;49285;49.002;8.390;2022-07-29T15:25:26;31.10;47.30
1880;DHT22;49285;49.002;8.390;2022-07-29T15:27:51;31.10;47.00
1880;DHT22;49285;49.002;8.390;2022-07-29T15:30:17;31.00;47.30
1880;DHT22;49285;49.002;8.390;2022-07-29T15:32:43;31.00;47.40
1880;DHT22;49285;49.002;8.390;2022-07-29T15:35:09;31.10;47.00
1880;DHT22;49285;49.002;8.390;2022-07-29T15:37:38;31.20;47.30
1880;DHT22;49285;49.002;8.390;2022-07-29T15:40:07;31.60;46.70
1880;DHT22;49285;49.002;8.390;2022-07-29T15:42:35;31.70;46.40
1880;DHT22;49285;49.002;8.390;2022-07-29T15:45:03;31.60;46.00
1880;DHT22;49285;49.002;8.390;2022-07-29T15:47:29;31.60;46.10
1880;DHT22;49285;49.002;8.390;2022-07-29T15:49:54;31.20;45.90
1880;DHT22;49285;49.002;8.390;2022-07-29T15:52:20;31.30;46.70
1880;DHT22;49285;49.002;8.390;2022-07-29T15:54:46;31.30;46.70
1880;DHT22;49285;49.002;8.390;2022-07-29T15:57:12;31.40;46.60
1880;DHT22;49285;49.002;8.390;2022-07-29T15:59:38;31.40;46.30
1880;DHT22;49285;49.002;8.390;2022-07-29T16:02:04;31.30;45.90
1880;DHT22;49285;49.002;8.390;2022-07-29T16:04:30;31.30;45.60
1880;DHT22;49285;49.002;8.390;2022-07-29T16:06:56;31.20;45.40
1880;DHT22;49285;49.002;8.390;2022-07-29T16:09:22;31.00;45.20
1880;DHT22;49285;49.002;8.390;2022-07-29T16:11:48;30.90;45.40
1880;DHT22;49285;49.002;8.390;2022-07-29T16:14:16;30.70;44.90
1880;DHT22;49285;49.002;8.390;2022-07-29T16:16:45;30.70;45.50
1880;DHT22;49285;49.002;8.390;2022-07-29T16:19:11;30.60;45.90
1880;DHT22;49285;49.002;8.390;2022-07-29T16:21:37;30.40;45.70
1880;DHT22;49285;49.002;8.390;2022-07-29T16:24:07;30.50;46.00
1880;DHT22;49285;49.002;8.390;2022-07-29T16:26:33;30.70;45.90
1880;DHT22;49285;49.002;8.390;2022-07-29T16:28:59;30.80;46.30
1880;DHT22;49285;49.002;8.390;2022-07-29T16:31:25;30.70;47.20
1880;DHT22;49285;49.002;8.390;2022-07-29T16:33:51;30.70;47.40
1880;DHT22;49285;49.002;8.390;2022-07-29T16:36:17;30.80;48.00
1880;DHT22;49285;49.002;8.390;2022-07-29T16:38:44;30.90;47.90
1880;DHT22;49285;49.002;8.390;2022-07-29T16:41:10;30.80;48.60
1880;DHT22;49285;49.002;8.390;2022-07-29T16:43:35;30.80;48.80
1880;DHT22;49285;49.002;8.390;2022-07-29T16:46:01;30.80;48.80